Puto Island — XUTS7 — position and weather

sailwx.info

Track history (hours):
 
Tides and Currents Weather Stations Pressure Air Temp Water Temp Dewpoint Dewpoint Depression Visibility Wind Speed Wind Dir Waves Ship Positions

Puto Island

Last reported at 2015-Jul-01 17:18 UTC. Time now 2015-Jul-03 20:22 UTC.
Position N 31°03' E 122°13'.

Length 71 m; draft 3.5 m.

Type: Cargo ship. MMSI: 514198000.

Date/timePositionNaut miles runAvg speedWind from/ knotsBaromVisibWave heightAir tempDewpointWater temp
2015-Jul-01 17:18N 31°03' E 122°13'1111.4
2015-Jul-01 16:22N 31°05' E 122°01'8 9.5
2015-Jul-01 15:33N 31°09' E 121°53'8 7.9
2015-Jul-01 14:33N 31°15' E 121°47'7 7.2
2015-Jul-01 13:33N 31°20' E 121°41'1110.5
2015-Jul-01 12:31N 31°26' E 121°30'1111.8
2015-Jul-01 11:33N 31°33' E 121°20'1414.0
2015-Jul-01 10:33N 31°43' E 121°08'5 4.5
2015-Jul-01 09:28N 31°44' E 121°02'0 0.0
2015-Jul-01 08:28N 31°44' E 121°02'0 0.0
2015-Jul-01 03:09N 31°44' E 121°02'0 0.0
2015-Jul-01 01:06N 31°44' E 121°02'4 5.2
2015-Jul-01 00:18N 31°43' E 121°07'1 1.1
2015-Jun-30 23:33N 31°43' E 121°08'0 0.0
2015-Jun-30 22:31N 31°43' E 121°08'0 0.0
2015-Jun-30 21:33N 31°43' E 121°08'0 0.0
2015-Jun-30 20:33N 31°43' E 121°08'0 0.0
2015-Jun-30 18:32N 31°43' E 121°08'0 0.0
2015-Jun-30 17:26N 31°43' E 121°08'0 0.1
2015-Jun-30 16:11N 31°43' E 121°08'0 0.1
2015-Jun-30 15:34N 31°43' E 121°08'8 8.1
2015-Jun-30 14:34N 31°38' E 121°15'1111.0
2015-Jun-30 13:33N 31°30' E 121°25'8 8.5
2015-Jun-30 12:33N 31°25' E 121°32'1010.4
2015-Jun-30 11:34N 31°19' E 121°42'9 9.1
2015-Jun-30 10:34N 31°12' E 121°49'9 8.8
2015-Jun-30 09:33N 31°07' E 121°57'  
Track history (hours):
 
Tides and Currents Weather Stations Pressure Air Temp Water Temp Dewpoint Dewpoint Depression Visibility Wind Speed Wind Dir Waves Ship Positions

Puto Island

Last reported at 2015-Jul-01 17:18 UTC. Time now 2015-Jul-03 20:22 UTC.
Position N 31°03' E 122°13'.

Length 71 m; draft 3.5 m.

Type: Cargo ship. MMSI: 514198000.

Date/timePositionNaut miles runAvg speedWind from/ knotsBaromVisibWave heightAir tempDewpointWater temp
2015-Jul-01 17:18N 31°03' E 122°13'1111.4
2015-Jul-01 16:22N 31°05' E 122°01'8 9.5
2015-Jul-01 15:33N 31°09' E 121°53'8 7.9
2015-Jul-01 14:33N 31°15' E 121°47'7 7.2
2015-Jul-01 13:33N 31°20' E 121°41'1110.5
2015-Jul-01 12:31N 31°26' E 121°30'1111.8
2015-Jul-01 11:33N 31°33' E 121°20'1414.0
2015-Jul-01 10:33N 31°43' E 121°08'5 4.5
2015-Jul-01 09:28N 31°44' E 121°02'0 0.0
2015-Jul-01 08:28N 31°44' E 121°02'0 0.0
2015-Jul-01 03:09N 31°44' E 121°02'0 0.0
2015-Jul-01 01:06N 31°44' E 121°02'4 5.2
2015-Jul-01 00:18N 31°43' E 121°07'1 1.1
2015-Jun-30 23:33N 31°43' E 121°08'0 0.0
2015-Jun-30 22:31N 31°43' E 121°08'0 0.0
2015-Jun-30 21:33N 31°43' E 121°08'0 0.0
2015-Jun-30 20:33N 31°43' E 121°08'0 0.0
2015-Jun-30 18:32N 31°43' E 121°08'0 0.0
2015-Jun-30 17:26N 31°43' E 121°08'0 0.1
2015-Jun-30 16:11N 31°43' E 121°08'0 0.1
2015-Jun-30 15:34N 31°43' E 121°08'8 8.1
2015-Jun-30 14:34N 31°38' E 121°15'1111.0
2015-Jun-30 13:33N 31°30' E 121°25'8 8.5
2015-Jun-30 12:33N 31°25' E 121°32'1010.4
2015-Jun-30 11:34N 31°19' E 121°42'9 9.1
2015-Jun-30 10:34N 31°12' E 121°49'9 8.8
2015-Jun-30 09:33N 31°07' E 121°57'  

Dump ship's entire track history